sensor_id;sensor_type;location;lat;lon;timestamp;P1;durP1;ratioP1;P2;durP2;ratioP2
17382;SDS011;8809;51.892;8.384;2023-07-29T00:01:01;1.38;;;1.27;;
17382;SDS011;8809;51.892;8.384;2023-07-29T00:03:29;1.50;;;1.40;;
17382;SDS011;8809;51.892;8.384;2023-07-29T00:05:57;1.58;;;1.30;;
17382;SDS011;8809;51.892;8.384;2023-07-29T00:08:24;8.38;;;2.05;;
17382;SDS011;8809;51.892;8.384;2023-07-29T00:10:51;2.30;;;1.13;;
17382;SDS011;8809;51.892;8.384;2023-07-29T00:13:21;1.17;;;1.08;;
17382;SDS011;8809;51.892;8.384;2023-07-29T00:15:53;1.27;;;1.17;;
17382;SDS011;8809;51.892;8.384;2023-07-29T00:18:20;1.60;;;1.50;;
17382;SDS011;8809;51.892;8.384;2023-07-29T00:20:48;1.05;;;1.00;;
17382;SDS011;8809;51.892;8.384;2023-07-29T00:23:16;1.10;;;1.00;;
17382;SDS011;8809;51.892;8.384;2023-07-29T00:25:45;1.23;;;1.13;;
17382;SDS011;8809;51.892;8.384;2023-07-29T00:28:12;1.27;;;1.13;;
17382;SDS011;8809;51.892;8.384;2023-07-29T00:30:41;1.20;;;1.10;;
17382;SDS011;8809;51.892;8.384;2023-07-29T00:33:08;1.77;;;1.23;;
17382;SDS011;8809;51.892;8.384;2023-07-29T00:35:37;1.30;;;1.20;;
17382;SDS011;8809;51.892;8.384;2023-07-29T00:38:04;1.23;;;1.00;;
17382;SDS011;8809;51.892;8.384;2023-07-29T00:40:31;1.23;;;1.13;;
17382;SDS011;8809;51.892;8.384;2023-07-29T00:43:02;0.90;;;0.90;;
17382;SDS011;8809;51.892;8.384;2023-07-29T00:45:29;1.10;;;1.00;;
17382;SDS011;8809;51.892;8.384;2023-07-29T00:47:59;1.50;;;1.40;;
17382;SDS011;8809;51.892;8.384;2023-07-29T00:50:27;1.10;;;1.00;;
17382;SDS011;8809;51.892;8.384;2023-07-29T00:52:57;1.20;;;1.08;;
17382;SDS011;8809;51.892;8.384;2023-07-29T00:55:24;1.55;;;1.10;;
17382;SDS011;8809;51.892;8.384;2023-07-29T00:57:52;1.00;;;0.90;;
17382;SDS011;8809;51.892;8.384;2023-07-29T01:00:20;1.70;;;1.15;;
17382;SDS011;8809;51.892;8.384;2023-07-29T01:02:50;1.42;;;1.00;;
17382;SDS011;8809;51.892;8.384;2023-07-29T01:05:21;1.30;;;1.20;;
17382;SDS011;8809;51.892;8.384;2023-07-29T01:07:56;1.40;;;1.15;;
17382;SDS011;8809;51.892;8.384;2023-07-29T01:10:38;1.60;;;1.10;;
17382;SDS011;8809;51.892;8.384;2023-07-29T01:13:14;1.38;;;1.20;;
17382;SDS011;8809;51.892;8.384;2023-07-29T01:15:48;2.17;;;1.02;;
17382;SDS011;8809;51.892;8.384;2023-07-29T01:18:22;1.55;;;1.00;;
17382;SDS011;8809;51.892;8.384;2023-07-29T01:20:53;1.23;;;1.15;;
17382;SDS011;8809;51.892;8.384;2023-07-29T01:23:25;1.23;;;1.13;;
17382;SDS011;8809;51.892;8.384;2023-07-29T01:25:52;1.27;;;1.17;;
17382;SDS011;8809;51.892;8.384;2023-07-29T01:28:19;1.40;;;1.30;;
17382;SDS011;8809;51.892;8.384;2023-07-29T01:30:47;1.20;;;1.10;;
17382;SDS011;8809;51.892;8.384;2023-07-29T01:33:18;1.35;;;1.10;;
17382;SDS011;8809;51.892;8.384;2023-07-29T01:35:52;1.27;;;1.17;;
17382;SDS011;8809;51.892;8.384;2023-07-29T01:38:27;1.30;;;1.20;;
17382;SDS011;8809;51.892;8.384;2023-07-29T01:40:57;1.10;;;1.00;;
17382;SDS011;8809;51.892;8.384;2023-07-29T01:43:26;1.50;;;1.30;;
17382;SDS011;8809;51.892;8.384;2023-07-29T01:45:54;1.20;;;1.10;;
17382;SDS011;8809;51.892;8.384;2023-07-29T01:48:21;1.55;;;1.45;;
17382;SDS011;8809;51.892;8.384;2023-07-29T01:50:48;1.50;;;1.40;;
17382;SDS011;8809;51.892;8.384;2023-07-29T01:53:16;1.30;;;1.20;;
17382;SDS011;8809;51.892;8.384;2023-07-29T01:55:44;1.70;;;1.55;;
17382;SDS011;8809;51.892;8.384;2023-07-29T01:58:12;1.40;;;1.30;;
17382;SDS011;8809;51.892;8.384;2023-07-29T02:00:39;1.60;;;1.50;;
17382;SDS011;8809;51.892;8.384;2023-07-29T02:03:06;2.00;;;1.40;;
17382;SDS011;8809;51.892;8.384;2023-07-29T02:05:33;2.50;;;1.40;;
17382;SDS011;8809;51.892;8.384;2023-07-29T02:08:01;1.75;;;1.40;;
17382;SDS011;8809;51.892;8.384;2023-07-29T02:10:28;1.38;;;1.27;;
17382;SDS011;8809;51.892;8.384;2023-07-29T02:12:57;1.88;;;1.60;;
17382;SDS011;8809;51.892;8.384;2023-07-29T02:15:24;1.77;;;1.67;;
17382;SDS011;8809;51.892;8.384;2023-07-29T02:17:51;1.50;;;1.40;;
17382;SDS011;8809;51.892;8.384;2023-07-29T02:20:18;1.70;;;1.60;;
17382;SDS011;8809;51.892;8.384;2023-07-29T02:22:45;2.30;;;1.30;;
17382;SDS011;8809;51.892;8.384;2023-07-29T02:25:13;1.60;;;1.50;;
17382;SDS011;8809;51.892;8.384;2023-07-29T02:27:41;1.30;;;1.20;;
17382;SDS011;8809;51.892;8.384;2023-07-29T02:30:10;1.40;;;1.30;;
17382;SDS011;8809;51.892;8.384;2023-07-29T02:32:38;1.73;;;1.25;;
17382;SDS011;8809;51.892;8.384;2023-07-29T02:35:05;1.50;;;1.40;;
17382;SDS011;8809;51.892;8.384;2023-07-29T02:37:32;1.63;;;1.50;;
17382;SDS011;8809;51.892;8.384;2023-07-29T02:40:00;1.40;;;1.30;;
17382;SDS011;8809;51.892;8.384;2023-07-29T02:42:27;1.65;;;1.50;;
17382;SDS011;8809;51.892;8.384;2023-07-29T02:44:54;1.48;;;1.38;;
17382;SDS011;8809;51.892;8.384;2023-07-29T02:47:23;1.30;;;1.20;;
17382;SDS011;8809;51.892;8.384;2023-07-29T02:49:51;2.33;;;1.30;;
17382;SDS011;8809;51.892;8.384;2023-07-29T02:52:18;1.25;;;1.20;;
17382;SDS011;8809;51.892;8.384;2023-07-29T02:54:45;1.52;;;1.42;;
17382;SDS011;8809;51.892;8.384;2023-07-29T02:57:13;1.30;;;1.20;;
17382;SDS011;8809;51.892;8.384;2023-07-29T02:59:40;1.40;;;1.30;;
17382;SDS011;8809;51.892;8.384;2023-07-29T03:02:09;1.42;;;1.33;;
17382;SDS011;8809;51.892;8.384;2023-07-29T03:04:38;1.30;;;1.20;;
17382;SDS011;8809;51.892;8.384;2023-07-29T03:07:05;1.55;;;1.45;;
17382;SDS011;8809;51.892;8.384;2023-07-29T03:09:32;1.88;;;1.15;;
17382;SDS011;8809;51.892;8.384;2023-07-29T03:11:59;1.60;;;1.50;;
17382;SDS011;8809;51.892;8.384;2023-07-29T03:14:27;1.40;;;1.30;;
17382;SDS011;8809;51.892;8.384;2023-07-29T03:16:54;1.48;;;1.38;;
17382;SDS011;8809;51.892;8.384;2023-07-29T03:19:21;1.60;;;1.50;;
17382;SDS011;8809;51.892;8.384;2023-07-29T03:21:50;1.45;;;1.35;;
17382;SDS011;8809;51.892;8.384;2023-07-29T03:24:17;1.52;;;1.42;;
17382;SDS011;8809;51.892;8.384;2023-07-29T03:26:44;1.83;;;1.45;;
17382;SDS011;8809;51.892;8.384;2023-07-29T03:29:11;2.60;;;1.80;;
17382;SDS011;8809;51.892;8.384;2023-07-29T03:31:38;1.80;;;1.33;;
17382;SDS011;8809;51.892;8.384;2023-07-29T03:34:05;1.70;;;1.60;;
17382;SDS011;8809;51.892;8.384;2023-07-29T03:36:33;1.60;;;1.50;;
17382;SDS011;8809;51.892;8.384;2023-07-29T03:39:01;1.50;;;1.40;;
17382;SDS011;8809;51.892;8.384;2023-07-29T03:41:29;3.05;;;1.63;;
17382;SDS011;8809;51.892;8.384;2023-07-29T03:43:56;1.58;;;1.48;;
17382;SDS011;8809;51.892;8.384;2023-07-29T03:46:23;1.83;;;1.70;;
17382;SDS011;8809;51.892;8.384;2023-07-29T03:48:51;1.45;;;1.35;;
17382;SDS011;8809;51.892;8.384;2023-07-29T03:51:20;1.50;;;1.40;;
17382;SDS011;8809;51.892;8.384;2023-07-29T03:53:48;1.60;;;1.50;;
17382;SDS011;8809;51.892;8.384;2023-07-29T03:56:17;1.50;;;1.40;;
17382;SDS011;8809;51.892;8.384;2023-07-29T03:58:45;1.60;;;1.50;;
17382;SDS011;8809;51.892;8.384;2023-07-29T04:01:12;1.30;;;1.20;;
17382;SDS011;8809;51.892;8.384;2023-07-29T04:03:39;1.33;;;1.23;;
17382;SDS011;8809;51.892;8.384;2023-07-29T04:06:06;1.17;;;1.08;;
17382;SDS011;8809;51.892;8.384;2023-07-29T04:08:33;1.58;;;1.48;;
17382;SDS011;8809;51.892;8.384;2023-07-29T04:11:01;1.42;;;1.25;;
17382;SDS011;8809;51.892;8.384;2023-07-29T04:13:29;1.80;;;1.70;;
17382;SDS011;8809;51.892;8.384;2023-07-29T04:15:56;1.30;;;1.20;;
17382;SDS011;8809;51.892;8.384;2023-07-29T04:18:24;1.38;;;1.27;;
17382;SDS011;8809;51.892;8.384;2023-07-29T04:20:51;1.20;;;1.10;;
17382;SDS011;8809;51.892;8.384;2023-07-29T04:23:18;1.30;;;1.20;;
17382;SDS011;8809;51.892;8.384;2023-07-29T04:25:45;1.23;;;1.13;;
17382;SDS011;8809;51.892;8.384;2023-07-29T04:28:12;1.20;;;1.10;;
17382;SDS011;8809;51.892;8.384;2023-07-29T04:30:41;1.30;;;1.20;;
17382;SDS011;8809;51.892;8.384;2023-07-29T04:33:08;1.02;;;1.02;;
17382;SDS011;8809;51.892;8.384;2023-07-29T04:35:35;1.20;;;1.10;;
17382;SDS011;8809;51.892;8.384;2023-07-29T04:38:02;1.40;;;1.30;;
17382;SDS011;8809;51.892;8.384;2023-07-29T04:40:32;1.00;;;1.00;;
17382;SDS011;8809;51.892;8.384;2023-07-29T04:43:00;1.27;;;1.17;;
17382;SDS011;8809;51.892;8.384;2023-07-29T04:45:27;1.30;;;1.20;;
17382;SDS011;8809;51.892;8.384;2023-07-29T04:47:59;1.40;;;1.30;;
17382;SDS011;8809;51.892;8.384;2023-07-29T04:50:26;1.02;;;1.00;;
17382;SDS011;8809;51.892;8.384;2023-07-29T04:52:53;1.40;;;1.30;;
17382;SDS011;8809;51.892;8.384;2023-07-29T04:55:20;1.33;;;1.23;;
17382;SDS011;8809;51.892;8.384;2023-07-29T04:57:47;1.67;;;1.58;;
17382;SDS011;8809;51.892;8.384;2023-07-29T05:00:14;1.10;;;1.10;;
17382;SDS011;8809;51.892;8.384;2023-07-29T05:02:42;1.55;;;1.33;;
17382;SDS011;8809;51.892;8.384;2023-07-29T05:05:11;1.30;;;1.20;;
17382;SDS011;8809;51.892;8.384;2023-07-29T05:07:38;1.52;;;1.40;;
17382;SDS011;8809;51.892;8.384;2023-07-29T05:10:05;1.92;;;1.40;;
17382;SDS011;8809;51.892;8.384;2023-07-29T05:12:33;1.45;;;1.35;;
17382;SDS011;8809;51.892;8.384;2023-07-29T05:15:00;1.60;;;1.50;;
17382;SDS011;8809;51.892;8.384;2023-07-29T05:17:28;1.20;;;1.10;;
17382;SDS011;8809;51.892;8.384;2023-07-29T05:19:55;1.38;;;1.27;;
17382;SDS011;8809;51.892;8.384;2023-07-29T05:22:24;1.30;;;1.20;;
17382;SDS011;8809;51.892;8.384;2023-07-29T05:24:51;1.40;;;1.30;;
17382;SDS011;8809;51.892;8.384;2023-07-29T05:27:19;1.38;;;1.27;;
17382;SDS011;8809;51.892;8.384;2023-07-29T05:29:46;1.40;;;1.30;;
17382;SDS011;8809;51.892;8.384;2023-07-29T05:32:15;1.52;;;1.30;;
17382;SDS011;8809;51.892;8.384;2023-07-29T05:34:42;1.70;;;1.60;;
17382;SDS011;8809;51.892;8.384;2023-07-29T05:37:09;1.67;;;1.58;;
17382;SDS011;8809;51.892;8.384;2023-07-29T05:39:38;1.70;;;1.58;;
17382;SDS011;8809;51.892;8.384;2023-07-29T05:42:05;2.75;;;1.80;;
17382;SDS011;8809;51.892;8.384;2023-07-29T05:44:33;1.60;;;1.48;;
17382;SDS011;8809;51.892;8.384;2023-07-29T05:47:00;1.58;;;1.48;;
17382;SDS011;8809;51.892;8.384;2023-07-29T05:49:28;1.75;;;1.60;;
17382;SDS011;8809;51.892;8.384;2023-07-29T05:51:55;1.90;;;1.80;;
17382;SDS011;8809;51.892;8.384;2023-07-29T05:54:22;2.20;;;2.10;;
17382;SDS011;8809;51.892;8.384;2023-07-29T05:56:51;2.10;;;1.90;;
17382;SDS011;8809;51.892;8.384;2023-07-29T05:59:18;2.00;;;1.90;;
17382;SDS011;8809;51.892;8.384;2023-07-29T06:01:45;3.28;;;2.50;;
17382;SDS011;8809;51.892;8.384;2023-07-29T06:04:12;2.00;;;1.75;;
17382;SDS011;8809;51.892;8.384;2023-07-29T06:06:39;3.15;;;2.40;;
17382;SDS011;8809;51.892;8.384;2023-07-29T06:09:07;2.00;;;1.88;;
17382;SDS011;8809;51.892;8.384;2023-07-29T06:11:34;2.50;;;2.30;;
17382;SDS011;8809;51.892;8.384;2023-07-29T06:14:03;2.10;;;2.00;;
17382;SDS011;8809;51.892;8.384;2023-07-29T06:16:30;4.55;;;2.45;;
17382;SDS011;8809;51.892;8.384;2023-07-29T06:18:57;3.53;;;3.22;;
17382;SDS011;8809;51.892;8.384;2023-07-29T06:21:24;2.72;;;2.53;;
17382;SDS011;8809;51.892;8.384;2023-07-29T06:23:51;2.80;;;2.60;;
17382;SDS011;8809;51.892;8.384;2023-07-29T06:26:19;2.40;;;2.20;;
17382;SDS011;8809;51.892;8.384;2023-07-29T06:28:46;1.98;;;1.88;;
17382;SDS011;8809;51.892;8.384;2023-07-29T06:31:15;2.30;;;2.10;;
17382;SDS011;8809;51.892;8.384;2023-07-29T06:33:42;2.15;;;2.00;;
17382;SDS011;8809;51.892;8.384;2023-07-29T06:36:09;2.00;;;1.58;;
17382;SDS011;8809;51.892;8.384;2023-07-29T06:38:36;2.13;;;2.00;;
17382;SDS011;8809;51.892;8.384;2023-07-29T06:41:03;2.80;;;2.60;;
17382;SDS011;8809;51.892;8.384;2023-07-29T06:43:31;3.97;;;3.20;;
17382;SDS011;8809;51.892;8.384;2023-07-29T06:45:58;4.28;;;3.88;;
17382;SDS011;8809;51.892;8.384;2023-07-29T06:48:26;3.90;;;3.10;;
17382;SDS011;8809;51.892;8.384;2023-07-29T06:50:53;3.72;;;3.33;;
17382;SDS011;8809;51.892;8.384;2023-07-29T06:53:25;5.55;;;4.60;;
17382;SDS011;8809;51.892;8.384;2023-07-29T06:55:53;6.07;;;4.57;;
17382;SDS011;8809;51.892;8.384;2023-07-29T06:58:20;5.10;;;4.60;;
17382;SDS011;8809;51.892;8.384;2023-07-29T07:00:48;6.57;;;5.25;;
17382;SDS011;8809;51.892;8.384;2023-07-29T07:03:15;8.52;;;6.95;;
17382;SDS011;8809;51.892;8.384;2023-07-29T07:05:44;11.13;;;8.40;;
17382;SDS011;8809;51.892;8.384;2023-07-29T07:08:11;11.30;;;10.10;;
17382;SDS011;8809;51.892;8.384;2023-07-29T07:10:38;12.82;;;11.45;;
17382;SDS011;8809;51.892;8.384;2023-07-29T07:13:06;14.13;;;12.07;;
17382;SDS011;8809;51.892;8.384;2023-07-29T07:15:33;12.38;;;11.15;;
17382;SDS011;8809;51.892;8.384;2023-07-29T07:18:00;15.23;;;12.35;;
17382;SDS011;8809;51.892;8.384;2023-07-29T07:20:27;13.65;;;12.25;;
17382;SDS011;8809;51.892;8.384;2023-07-29T07:22:56;13.07;;;11.55;;
17382;SDS011;8809;51.892;8.384;2023-07-29T07:25:24;11.55;;;10.35;;
17382;SDS011;8809;51.892;8.384;2023-07-29T07:27:51;12.90;;;10.82;;
17382;SDS011;8809;51.892;8.384;2023-07-29T07:30:18;11.88;;;10.65;;
17382;SDS011;8809;51.892;8.384;2023-07-29T07:32:45;11.57;;;9.82;;
17382;SDS011;8809;51.892;8.384;2023-07-29T07:35:13;10.18;;;9.07;;
17382;SDS011;8809;51.892;8.384;2023-07-29T07:37:40;10.45;;;9.35;;
17382;SDS011;8809;51.892;8.384;2023-07-29T07:40:09;9.50;;;8.50;;
17382;SDS011;8809;51.892;8.384;2023-07-29T07:42:36;9.60;;;8.60;;
17382;SDS011;8809;51.892;8.384;2023-07-29T07:45:04;8.82;;;8.02;;
17382;SDS011;8809;51.892;8.384;2023-07-29T07:47:31;7.85;;;7.10;;
17382;SDS011;8809;51.892;8.384;2023-07-29T07:49:58;7.80;;;7.10;;
17382;SDS011;8809;51.892;8.384;2023-07-29T07:52:26;7.40;;;6.70;;
17382;SDS011;8809;51.892;8.384;2023-07-29T07:54:54;7.07;;;6.40;;
17382;SDS011;8809;51.892;8.384;2023-07-29T07:57:22;6.40;;;5.82;;
17382;SDS011;8809;51.892;8.384;2023-07-29T07:59:49;6.53;;;5.93;;
17382;SDS011;8809;51.892;8.384;2023-07-29T08:02:17;6.63;;;6.13;;
17382;SDS011;8809;51.892;8.384;2023-07-29T08:04:45;6.45;;;5.85;;
17382;SDS011;8809;51.892;8.384;2023-07-29T08:07:12;6.88;;;6.18;;
17382;SDS011;8809;51.892;8.384;2023-07-29T08:09:42;6.43;;;5.82;;
17382;SDS011;8809;51.892;8.384;2023-07-29T08:12:10;6.00;;;5.50;;
17382;SDS011;8809;51.892;8.384;2023-07-29T08:14:41;5.20;;;4.80;;
17382;SDS011;8809;51.892;8.384;2023-07-29T08:17:08;5.32;;;4.82;;
17382;SDS011;8809;51.892;8.384;2023-07-29T08:19:35;4.05;;;3.60;;
17382;SDS011;8809;51.892;8.384;2023-07-29T08:22:03;3.95;;;3.55;;
17382;SDS011;8809;51.892;8.384;2023-07-29T08:24:31;3.40;;;3.10;;
17382;SDS011;8809;51.892;8.384;2023-07-29T08:26:59;2.83;;;2.63;;
17382;SDS011;8809;51.892;8.384;2023-07-29T08:29:26;3.47;;;3.17;;
17382;SDS011;8809;51.892;8.384;2023-07-29T08:31:55;3.25;;;2.95;;
17382;SDS011;8809;51.892;8.384;2023-07-29T08:34:22;2.70;;;2.50;;
17382;SDS011;8809;51.892;8.384;2023-07-29T08:36:49;3.88;;;2.85;;
17382;SDS011;8809;51.892;8.384;2023-07-29T08:39:16;3.05;;;2.85;;
17382;SDS011;8809;51.892;8.384;2023-07-29T08:41:45;3.05;;;2.80;;
17382;SDS011;8809;51.892;8.384;2023-07-29T08:44:18;3.45;;;3.00;;
17382;SDS011;8809;51.892;8.384;2023-07-29T08:46:48;3.22;;;2.72;;
17382;SDS011;8809;51.892;8.384;2023-07-29T08:49:17;4.20;;;2.50;;
17382;SDS011;8809;51.892;8.384;2023-07-29T08:51:45;2.55;;;2.35;;
17382;SDS011;8809;51.892;8.384;2023-07-29T08:54:14;3.08;;;2.35;;
17382;SDS011;8809;51.892;8.384;2023-07-29T08:56:41;4.07;;;2.70;;
17382;SDS011;8809;51.892;8.384;2023-07-29T08:59:09;2.47;;;2.28;;
17382;SDS011;8809;51.892;8.384;2023-07-29T09:01:37;2.50;;;2.30;;
17382;SDS011;8809;51.892;8.384;2023-07-29T09:04:05;3.03;;;2.55;;
17382;SDS011;8809;51.892;8.384;2023-07-29T09:06:34;2.30;;;2.10;;
17382;SDS011;8809;51.892;8.384;2023-07-29T09:09:03;2.70;;;2.00;;
17382;SDS011;8809;51.892;8.384;2023-07-29T09:11:31;1.85;;;1.75;;
17382;SDS011;8809;51.892;8.384;2023-07-29T09:13:59;1.65;;;1.55;;
17382;SDS011;8809;51.892;8.384;2023-07-29T09:16:26;1.85;;;1.50;;
17382;SDS011;8809;51.892;8.384;2023-07-29T09:18:54;2.60;;;1.35;;
17382;SDS011;8809;51.892;8.384;2023-07-29T09:21:23;1.73;;;1.50;;
17382;SDS011;8809;51.892;8.384;2023-07-29T09:23:53;1.58;;;1.30;;
17382;SDS011;8809;51.892;8.384;2023-07-29T09:26:24;2.05;;;1.40;;
17382;SDS011;8809;51.892;8.384;2023-07-29T09:28:53;1.42;;;1.33;;
17382;SDS011;8809;51.892;8.384;2023-07-29T09:31:21;1.58;;;1.30;;
17382;SDS011;8809;51.892;8.384;2023-07-29T09:33:53;1.38;;;1.27;;
17382;SDS011;8809;51.892;8.384;2023-07-29T09:36:22;1.38;;;1.20;;
17382;SDS011;8809;51.892;8.384;2023-07-29T09:38:52;2.08;;;1.10;;
17382;SDS011;8809;51.892;8.384;2023-07-29T09:41:24;1.27;;;1.17;;
17382;SDS011;8809;51.892;8.384;2023-07-29T09:43:55;1.20;;;1.10;;
17382;SDS011;8809;51.892;8.384;2023-07-29T09:46:24;1.88;;;1.00;;
17382;SDS011;8809;51.892;8.384;2023-07-29T09:48:58;1.30;;;0.80;;
17382;SDS011;8809;51.892;8.384;2023-07-29T09:51:26;1.00;;;0.90;;
17382;SDS011;8809;51.892;8.384;2023-07-29T09:53:54;1.08;;;0.98;;
17382;SDS011;8809;51.892;8.384;2023-07-29T09:56:25;0.93;;;0.77;;
17382;SDS011;8809;51.892;8.384;2023-07-29T09:58:55;1.00;;;0.90;;
17382;SDS011;8809;51.892;8.384;2023-07-29T10:01:23;1.95;;;0.80;;
17382;SDS011;8809;51.892;8.384;2023-07-29T10:03:51;1.05;;;0.93;;
17382;SDS011;8809;51.892;8.384;2023-07-29T10:06:25;1.23;;;0.88;;
17382;SDS011;8809;51.892;8.384;2023-07-29T10:08:55;0.80;;;0.80;;
17382;SDS011;8809;51.892;8.384;2023-07-29T10:11:22;1.08;;;0.90;;
17382;SDS011;8809;51.892;8.384;2023-07-29T10:13:51;1.83;;;0.90;;
17382;SDS011;8809;51.892;8.384;2023-07-29T10:16:19;1.00;;;0.88;;
17382;SDS011;8809;51.892;8.384;2023-07-29T10:18:48;0.93;;;0.85;;
17382;SDS011;8809;51.892;8.384;2023-07-29T10:21:15;1.10;;;0.80;;
17382;SDS011;8809;51.892;8.384;2023-07-29T10:23:44;1.10;;;0.60;;
17382;SDS011;8809;51.892;8.384;2023-07-29T10:26:17;1.85;;;0.90;;
17382;SDS011;8809;51.892;8.384;2023-07-29T10:28:47;1.10;;;0.90;;
17382;SDS011;8809;51.892;8.384;2023-07-29T10:31:19;0.80;;;0.80;;
17382;SDS011;8809;51.892;8.384;2023-07-29T10:33:49;0.73;;;0.70;;
17382;SDS011;8809;51.892;8.384;2023-07-29T10:36:17;1.00;;;0.80;;
17382;SDS011;8809;51.892;8.384;2023-07-29T10:38:45;1.13;;;0.80;;
17382;SDS011;8809;51.892;8.384;2023-07-29T10:41:12;0.93;;;0.63;;
17382;SDS011;8809;51.892;8.384;2023-07-29T10:43:40;1.13;;;0.90;;
17382;SDS011;8809;51.892;8.384;2023-07-29T10:46:15;1.45;;;1.00;;
17382;SDS011;8809;51.892;8.384;2023-07-29T10:48:44;1.20;;;0.98;;
17382;SDS011;8809;51.892;8.384;2023-07-29T10:51:25;0.80;;;0.75;;
17382;SDS011;8809;51.892;8.384;2023-07-29T10:54:00;1.58;;;1.00;;
17382;SDS011;8809;51.892;8.384;2023-07-29T10:56:29;0.80;;;0.80;;
17382;SDS011;8809;51.892;8.384;2023-07-29T10:59:02;1.02;;;1.00;;
17382;SDS011;8809;51.892;8.384;2023-07-29T11:01:50;1.90;;;1.02;;
17382;SDS011;8809;51.892;8.384;2023-07-29T11:04:23;1.42;;;1.17;;
17382;SDS011;8809;51.892;8.384;2023-07-29T11:09:58;1.38;;;1.27;;
17382;SDS011;8809;51.892;8.384;2023-07-29T11:12:34;1.52;;;1.42;;
17382;SDS011;8809;51.892;8.384;2023-07-29T11:15:19;1.40;;;1.30;;
17382;SDS011;8809;51.892;8.384;2023-07-29T11:17:48;1.40;;;1.30;;
17382;SDS011;8809;51.892;8.384;2023-07-29T11:20:19;1.42;;;1.20;;
17382;SDS011;8809;51.892;8.384;2023-07-29T11:22:48;1.50;;;1.40;;
17382;SDS011;8809;51.892;8.384;2023-07-29T11:25:16;1.77;;;1.30;;
17382;SDS011;8809;51.892;8.384;2023-07-29T11:27:44;1.38;;;1.27;;
17382;SDS011;8809;51.892;8.384;2023-07-29T11:30:14;1.55;;;1.45;;
17382;SDS011;8809;51.892;8.384;2023-07-29T11:32:44;2.08;;;1.40;;
17382;SDS011;8809;51.892;8.384;2023-07-29T11:35:12;2.05;;;1.40;;
17382;SDS011;8809;51.892;8.384;2023-07-29T11:37:41;1.60;;;1.50;;
17382;SDS011;8809;51.892;8.384;2023-07-29T11:40:13;1.42;;;1.33;;
17382;SDS011;8809;51.892;8.384;2023-07-29T11:42:41;1.58;;;1.42;;
17382;SDS011;8809;51.892;8.384;2023-07-29T11:45:08;1.30;;;1.17;;
17382;SDS011;8809;51.892;8.384;2023-07-29T11:47:36;1.40;;;1.25;;
17382;SDS011;8809;51.892;8.384;2023-07-29T11:50:06;1.75;;;1.40;;
17382;SDS011;8809;51.892;8.384;2023-07-29T11:52:36;1.17;;;1.08;;
17382;SDS011;8809;51.892;8.384;2023-07-29T11:55:06;1.20;;;1.05;;
17382;SDS011;8809;51.892;8.384;2023-07-29T11:57:35;1.20;;;1.10;;
17382;SDS011;8809;51.892;8.384;2023-07-29T12:00:03;1.30;;;1.20;;
17382;SDS011;8809;51.892;8.384;2023-07-29T12:02:32;1.40;;;1.30;;
17382;SDS011;8809;51.892;8.384;2023-07-29T12:05:02;1.40;;;1.20;;
17382;SDS011;8809;51.892;8.384;2023-07-29T12:07:34;1.60;;;1.23;;
17382;SDS011;8809;51.892;8.384;2023-07-29T12:10:02;2.13;;;1.20;;
17382;SDS011;8809;51.892;8.384;2023-07-29T12:12:30;1.63;;;1.40;;
17382;SDS011;8809;51.892;8.384;2023-07-29T12:14:57;1.58;;;1.48;;
17382;SDS011;8809;51.892;8.384;2023-07-29T12:17:26;1.83;;;1.40;;
17382;SDS011;8809;51.892;8.384;2023-07-29T12:19:53;1.77;;;1.52;;
17382;SDS011;8809;51.892;8.384;2023-07-29T12:22:21;1.30;;;1.20;;
17382;SDS011;8809;51.892;8.384;2023-07-29T12:24:50;1.83;;;1.67;;
17382;SDS011;8809;51.892;8.384;2023-07-29T12:27:19;1.45;;;1.35;;
17382;SDS011;8809;51.892;8.384;2023-07-29T12:29:48;1.70;;;1.60;;
17382;SDS011;8809;51.892;8.384;2023-07-29T12:32:19;1.65;;;1.55;;
17382;SDS011;8809;51.892;8.384;2023-07-29T12:34:46;1.95;;;1.77;;
17382;SDS011;8809;51.892;8.384;2023-07-29T12:37:14;1.90;;;1.60;;
17382;SDS011;8809;51.892;8.384;2023-07-29T12:39:41;2.35;;;1.92;;
17382;SDS011;8809;51.892;8.384;2023-07-29T12:42:09;1.73;;;1.63;;
17382;SDS011;8809;51.892;8.384;2023-07-29T12:44:37;1.83;;;1.55;;
17382;SDS011;8809;51.892;8.384;2023-07-29T12:47:05;1.65;;;1.55;;
17382;SDS011;8809;51.892;8.384;2023-07-29T12:49:35;1.63;;;1.50;;
17382;SDS011;8809;51.892;8.384;2023-07-29T12:52:02;1.90;;;1.75;;
17382;SDS011;8809;51.892;8.384;2023-07-29T12:54:30;1.83;;;1.73;;
17382;SDS011;8809;51.892;8.384;2023-07-29T12:56:57;2.33;;;1.90;;
17382;SDS011;8809;51.892;8.384;2023-07-29T12:59:26;2.03;;;1.90;;
17382;SDS011;8809;51.892;8.384;2023-07-29T13:01:53;2.10;;;1.90;;
17382;SDS011;8809;51.892;8.384;2023-07-29T13:04:20;1.85;;;1.75;;
17382;SDS011;8809;51.892;8.384;2023-07-29T13:06:47;2.30;;;2.05;;
17382;SDS011;8809;51.892;8.384;2023-07-29T13:09:14;2.10;;;1.90;;
17382;SDS011;8809;51.892;8.384;2023-07-29T13:11:41;2.08;;;1.98;;
17382;SDS011;8809;51.892;8.384;2023-07-29T13:14:08;2.28;;;2.17;;
17382;SDS011;8809;51.892;8.384;2023-07-29T13:16:37;2.58;;;2.38;;
17382;SDS011;8809;51.892;8.384;2023-07-29T13:19:04;2.42;;;2.22;;
17382;SDS011;8809;51.892;8.384;2023-07-29T13:21:31;2.20;;;2.00;;
17382;SDS011;8809;51.892;8.384;2023-07-29T13:23:59;1.95;;;1.85;;
17382;SDS011;8809;51.892;8.384;2023-07-29T13:26:26;1.90;;;1.70;;
17382;SDS011;8809;51.892;8.384;2023-07-29T13:28:53;1.60;;;1.50;;
17382;SDS011;8809;51.892;8.384;2023-07-29T13:31:21;1.70;;;1.60;;
17382;SDS011;8809;51.892;8.384;2023-07-29T13:33:49;1.60;;;1.50;;
17382;SDS011;8809;51.892;8.384;2023-07-29T13:36:18;1.90;;;1.80;;
17382;SDS011;8809;51.892;8.384;2023-07-29T13:38:46;4.45;;;4.05;;
17382;SDS011;8809;51.892;8.384;2023-07-29T13:41:13;5.03;;;4.40;;
17382;SDS011;8809;51.892;8.384;2023-07-29T13:43:40;3.00;;;2.60;;
17382;SDS011;8809;51.892;8.384;2023-07-29T13:46:07;10.80;;;6.88;;
17382;SDS011;8809;51.892;8.384;2023-07-29T13:48:34;8.13;;;6.07;;
17382;SDS011;8809;51.892;8.384;2023-07-29T13:51:06;6.07;;;4.80;;
17382;SDS011;8809;51.892;8.384;2023-07-29T13:53:33;3.35;;;2.90;;
17382;SDS011;8809;51.892;8.384;2023-07-29T13:56:00;4.47;;;3.67;;
17382;SDS011;8809;51.892;8.384;2023-07-29T13:58:27;3.88;;;3.38;;
17382;SDS011;8809;51.892;8.384;2023-07-29T14:00:54;3.50;;;3.20;;
17382;SDS011;8809;51.892;8.384;2023-07-29T14:03:22;3.25;;;2.08;;
17382;SDS011;8809;51.892;8.384;2023-07-29T14:05:49;4.97;;;4.28;;
17382;SDS011;8809;51.892;8.384;2023-07-29T14:08:17;11.98;;;9.00;;
17382;SDS011;8809;51.892;8.384;2023-07-29T14:10:45;3.80;;;3.42;;
17382;SDS011;8809;51.892;8.384;2023-07-29T14:13:12;3.03;;;2.20;;
17382;SDS011;8809;51.892;8.384;2023-07-29T14:15:39;3.10;;;2.80;;
17382;SDS011;8809;51.892;8.384;2023-07-29T14:18:06;3.15;;;2.08;;
17382;SDS011;8809;51.892;8.384;2023-07-29T14:20:33;3.45;;;2.40;;
17382;SDS011;8809;51.892;8.384;2023-07-29T14:23:01;2.30;;;2.10;;
17382;SDS011;8809;51.892;8.384;2023-07-29T14:25:32;2.90;;;2.28;;
17382;SDS011;8809;51.892;8.384;2023-07-29T14:27:59;3.03;;;2.80;;
17382;SDS011;8809;51.892;8.384;2023-07-29T14:30:26;2.50;;;2.30;;
17382;SDS011;8809;51.892;8.384;2023-07-29T14:32:56;2.50;;;2.30;;
17382;SDS011;8809;51.892;8.384;2023-07-29T14:35:23;2.40;;;2.20;;
17382;SDS011;8809;51.892;8.384;2023-07-29T14:37:51;2.35;;;1.90;;
17382;SDS011;8809;51.892;8.384;2023-07-29T14:40:18;2.22;;;2.03;;
17382;SDS011;8809;51.892;8.384;2023-07-29T14:42:47;2.30;;;2.10;;
17382;SDS011;8809;51.892;8.384;2023-07-29T14:45:15;2.72;;;2.13;;
17382;SDS011;8809;51.892;8.384;2023-07-29T14:47:42;2.15;;;1.98;;
17382;SDS011;8809;51.892;8.384;2023-07-29T14:50:10;2.97;;;1.90;;
17382;SDS011;8809;51.892;8.384;2023-07-29T14:52:37;2.00;;;1.80;;
17382;SDS011;8809;51.892;8.384;2023-07-29T14:55:05;3.70;;;1.80;;
17382;SDS011;8809;51.892;8.384;2023-07-29T14:57:32;2.08;;;1.83;;
17382;SDS011;8809;51.892;8.384;2023-07-29T15:00:01;2.20;;;2.00;;
17382;SDS011;8809;51.892;8.384;2023-07-29T15:02:29;1.90;;;1.70;;
17382;SDS011;8809;51.892;8.384;2023-07-29T15:04:56;2.72;;;2.00;;
17382;SDS011;8809;51.892;8.384;2023-07-29T15:07:25;2.10;;;1.75;;
17382;SDS011;8809;51.892;8.384;2023-07-29T15:09:52;1.90;;;1.70;;